sensor_id;sensor_type;location;lat;lon;timestamp;temperature;humidity
20839;DHT22;10580;51.092;6.828;2023-02-15T00:01:05;3.60;99.90
20839;DHT22;10580;51.092;6.828;2023-02-15T00:03:31;3.70;99.90
20839;DHT22;10580;51.092;6.828;2023-02-15T00:05:57;3.60;99.90
20839;DHT22;10580;51.092;6.828;2023-02-15T00:08:22;3.60;99.90
20839;DHT22;10580;51.092;6.828;2023-02-15T00:10:48;3.60;99.90
20839;DHT22;10580;51.092;6.828;2023-02-15T00:13:14;3.50;99.90
20839;DHT22;10580;51.092;6.828;2023-02-15T00:15:39;3.50;99.90
20839;DHT22;10580;51.092;6.828;2023-02-15T00:18:05;3.50;99.90
20839;DHT22;10580;51.092;6.828;2023-02-15T00:20:30;3.50;99.90
20839;DHT22;10580;51.092;6.828;2023-02-15T00:22:56;3.40;99.90
20839;DHT22;10580;51.092;6.828;2023-02-15T00:25:21;3.40;99.90
20839;DHT22;10580;51.092;6.828;2023-02-15T00:27:47;3.40;99.90
20839;DHT22;10580;51.092;6.828;2023-02-15T00:30:12;3.40;99.90
20839;DHT22;10580;51.092;6.828;2023-02-15T00:32:38;3.40;99.90
20839;DHT22;10580;51.092;6.828;2023-02-15T00:35:04;3.40;99.90
20839;DHT22;10580;51.092;6.828;2023-02-15T00:37:30;3.40;99.90
20839;DHT22;10580;51.092;6.828;2023-02-15T00:39:55;3.30;99.90
20839;DHT22;10580;51.092;6.828;2023-02-15T00:42:21;3.30;99.90
20839;DHT22;10580;51.092;6.828;2023-02-15T00:44:46;3.30;99.90
20839;DHT22;10580;51.092;6.828;2023-02-15T00:50:39;3.30;99.90
20839;DHT22;10580;51.092;6.828;2023-02-15T00:53:04;3.20;99.90
20839;DHT22;10580;51.092;6.828;2023-02-15T00:55:30;3.20;99.90
20839;DHT22;10580;51.092;6.828;2023-02-15T00:57:55;3.20;99.90
20839;DHT22;10580;51.092;6.828;2023-02-15T01:00:21;3.20;99.90
20839;DHT22;10580;51.092;6.828;2023-02-15T01:02:47;3.20;99.90
20839;DHT22;10580;51.092;6.828;2023-02-15T01:05:12;3.10;99.90
20839;DHT22;10580;51.092;6.828;2023-02-15T01:07:38;3.10;99.90
20839;DHT22;10580;51.092;6.828;2023-02-15T01:10:08;3.10;99.90
20839;DHT22;10580;51.092;6.828;2023-02-15T01:12:34;3.10;99.90
20839;DHT22;10580;51.092;6.828;2023-02-15T01:14:59;3.10;99.90
20839;DHT22;10580;51.092;6.828;2023-02-15T01:17:25;3.10;99.90
20839;DHT22;10580;51.092;6.828;2023-02-15T01:19:51;3.10;99.90
20839;DHT22;10580;51.092;6.828;2023-02-15T01:22:17;3.10;99.90
20839;DHT22;10580;51.092;6.828;2023-02-15T01:24:43;3.10;99.90
20839;DHT22;10580;51.092;6.828;2023-02-15T01:27:09;3.00;99.90
20839;DHT22;10580;51.092;6.828;2023-02-15T01:29:34;3.00;99.90
20839;DHT22;10580;51.092;6.828;2023-02-15T01:32:00;3.00;99.90
20839;DHT22;10580;51.092;6.828;2023-02-15T01:34:26;3.00;99.90
20839;DHT22;10580;51.092;6.828;2023-02-15T01:36:51;3.00;99.90
20839;DHT22;10580;51.092;6.828;2023-02-15T01:39:17;3.00;99.90
20839;DHT22;10580;51.092;6.828;2023-02-15T01:41:42;3.00;99.90
20839;DHT22;10580;51.092;6.828;2023-02-15T01:47:15;3.00;99.90
20839;DHT22;10580;51.092;6.828;2023-02-15T01:49:42;3.00;99.90
20839;DHT22;10580;51.092;6.828;2023-02-15T01:52:10;3.00;99.90
20839;DHT22;10580;51.092;6.828;2023-02-15T01:54:39;3.00;99.90
20839;DHT22;10580;51.092;6.828;2023-02-15T01:57:10;3.00;99.90
20839;DHT22;10580;51.092;6.828;2023-02-15T01:59:39;2.90;99.90
20839;DHT22;10580;51.092;6.828;2023-02-15T02:02:09;3.00;99.90
20839;DHT22;10580;51.092;6.828;2023-02-15T02:04:43;2.90;99.90
20839;DHT22;10580;51.092;6.828;2023-02-15T02:07:09;2.90;99.90
20839;DHT22;10580;51.092;6.828;2023-02-15T02:09:37;2.80;99.90
20839;DHT22;10580;51.092;6.828;2023-02-15T02:12:03;2.80;99.90
20839;DHT22;10580;51.092;6.828;2023-02-15T02:14:29;2.90;99.90
20839;DHT22;10580;51.092;6.828;2023-02-15T02:17:16;2.80;99.90
20839;DHT22;10580;51.092;6.828;2023-02-15T02:37:12;2.80;99.90
20839;DHT22;10580;51.092;6.828;2023-02-15T02:40:03;2.80;99.90
20839;DHT22;10580;51.092;6.828;2023-02-15T02:42:46;2.70;99.90
20839;DHT22;10580;51.092;6.828;2023-02-15T02:45:28;2.70;99.90
20839;DHT22;10580;51.092;6.828;2023-02-15T02:48:02;2.70;99.90
20839;DHT22;10580;51.092;6.828;2023-02-15T02:50:30;2.70;99.90
20839;DHT22;10580;51.092;6.828;2023-02-15T02:52:57;2.70;99.90
20839;DHT22;10580;51.092;6.828;2023-02-15T02:55:34;2.60;99.90
20839;DHT22;10580;51.092;6.828;2023-02-15T02:58:20;2.70;99.90
20839;DHT22;10580;51.092;6.828;2023-02-15T03:01:01;2.60;99.90
20839;DHT22;10580;51.092;6.828;2023-02-15T03:03:44;2.60;99.90
20839;DHT22;10580;51.092;6.828;2023-02-15T03:06:20;2.60;99.90
20839;DHT22;10580;51.092;6.828;2023-02-15T03:08:51;2.50;99.90
20839;DHT22;10580;51.092;6.828;2023-02-15T03:11:19;2.50;99.90
20839;DHT22;10580;51.092;6.828;2023-02-15T03:13:47;2.50;99.90
20839;DHT22;10580;51.092;6.828;2023-02-15T03:16:14;2.50;99.90
20839;DHT22;10580;51.092;6.828;2023-02-15T03:19:02;2.50;99.90
20839;DHT22;10580;51.092;6.828;2023-02-15T03:21:42;2.40;99.90
20839;DHT22;10580;51.092;6.828;2023-02-15T03:24:17;2.40;99.90
20839;DHT22;10580;51.092;6.828;2023-02-15T03:26:49;2.40;99.90
20839;DHT22;10580;51.092;6.828;2023-02-15T03:29:17;2.40;99.90
20839;DHT22;10580;51.092;6.828;2023-02-15T03:31:47;2.30;99.90
20839;DHT22;10580;51.092;6.828;2023-02-15T03:34:17;2.40;99.90
20839;DHT22;10580;51.092;6.828;2023-02-15T03:37:07;2.30;99.90
20839;DHT22;10580;51.092;6.828;2023-02-15T03:39:44;2.30;99.90
20839;DHT22;10580;51.092;6.828;2023-02-15T03:42:32;2.30;99.90
20839;DHT22;10580;51.092;6.828;2023-02-15T03:45:02;2.30;99.90
20839;DHT22;10580;51.092;6.828;2023-02-15T03:47:32;2.30;99.90
20839;DHT22;10580;51.092;6.828;2023-02-15T03:50:03;2.30;99.90
20839;DHT22;10580;51.092;6.828;2023-02-15T03:52:51;2.20;99.90
20839;DHT22;10580;51.092;6.828;2023-02-15T03:55:17;2.20;99.90
20839;DHT22;10580;51.092;6.828;2023-02-15T03:57:43;2.20;99.90
20839;DHT22;10580;51.092;6.828;2023-02-15T04:00:27;2.20;99.90
20839;DHT22;10580;51.092;6.828;2023-02-15T04:05:42;2.20;99.90
20839;DHT22;10580;51.092;6.828;2023-02-15T04:08:09;2.20;99.90
20839;DHT22;10580;51.092;6.828;2023-02-15T04:10:35;2.20;99.90
20839;DHT22;10580;51.092;6.828;2023-02-15T04:13:31;2.20;99.90
20839;DHT22;10580;51.092;6.828;2023-02-15T04:15:57;2.20;99.90
20839;DHT22;10580;51.092;6.828;2023-02-15T04:18:41;2.20;99.90
20839;DHT22;10580;51.092;6.828;2023-02-15T04:21:28;2.20;99.90
20839;DHT22;10580;51.092;6.828;2023-02-15T04:24:13;2.10;99.90
20839;DHT22;10580;51.092;6.828;2023-02-15T04:26:58;2.10;99.90
20839;DHT22;10580;51.092;6.828;2023-02-15T04:29:25;2.10;99.90
20839;DHT22;10580;51.092;6.828;2023-02-15T04:31:52;2.00;99.90
20839;DHT22;10580;51.092;6.828;2023-02-15T04:34:18;2.00;99.90
20839;DHT22;10580;51.092;6.828;2023-02-15T04:36:44;2.00;99.90
20839;DHT22;10580;51.092;6.828;2023-02-15T04:39:12;1.90;99.90
20839;DHT22;10580;51.092;6.828;2023-02-15T04:41:38;2.00;99.90
20839;DHT22;10580;51.092;6.828;2023-02-15T04:44:04;2.00;99.90
20839;DHT22;10580;51.092;6.828;2023-02-15T04:46:30;1.90;99.90
20839;DHT22;10580;51.092;6.828;2023-02-15T04:48:56;1.90;99.90
20839;DHT22;10580;51.092;6.828;2023-02-15T04:51:21;1.90;99.90
20839;DHT22;10580;51.092;6.828;2023-02-15T04:53:47;1.90;99.90
20839;DHT22;10580;51.092;6.828;2023-02-15T04:56:13;1.90;99.90
20839;DHT22;10580;51.092;6.828;2023-02-15T04:58:38;1.90;99.90
20839;DHT22;10580;51.092;6.828;2023-02-15T05:01:07;1.80;99.90
20839;DHT22;10580;51.092;6.828;2023-02-15T05:03:33;1.80;99.90
20839;DHT22;10580;51.092;6.828;2023-02-15T05:05:58;1.80;99.90
20839;DHT22;10580;51.092;6.828;2023-02-15T05:08:24;1.80;99.90
20839;DHT22;10580;51.092;6.828;2023-02-15T05:10:50;1.80;99.90
20839;DHT22;10580;51.092;6.828;2023-02-15T05:13:16;1.80;99.90
20839;DHT22;10580;51.092;6.828;2023-02-15T05:15:45;1.80;99.90
20839;DHT22;10580;51.092;6.828;2023-02-15T05:18:11;1.80;99.90
20839;DHT22;10580;51.092;6.828;2023-02-15T05:20:37;1.80;99.90
20839;DHT22;10580;51.092;6.828;2023-02-15T05:23:02;1.80;99.90
20839;DHT22;10580;51.092;6.828;2023-02-15T05:25:28;1.90;99.90
20839;DHT22;10580;51.092;6.828;2023-02-15T05:28:12;1.90;99.90
20839;DHT22;10580;51.092;6.828;2023-02-15T05:30:48;1.90;99.90
20839;DHT22;10580;51.092;6.828;2023-02-15T05:33:14;1.90;99.90
20839;DHT22;10580;51.092;6.828;2023-02-15T05:35:39;1.90;99.90
20839;DHT22;10580;51.092;6.828;2023-02-15T05:38:05;1.90;99.90
20839;DHT22;10580;51.092;6.828;2023-02-15T05:40:31;1.90;99.90
20839;DHT22;10580;51.092;6.828;2023-02-15T05:42:56;1.90;99.90
20839;DHT22;10580;51.092;6.828;2023-02-15T05:45:22;1.90;99.90
20839;DHT22;10580;51.092;6.828;2023-02-15T05:47:48;1.80;99.90
20839;DHT22;10580;51.092;6.828;2023-02-15T05:50:13;1.80;99.90
20839;DHT22;10580;51.092;6.828;2023-02-15T05:52:39;1.80;99.90
20839;DHT22;10580;51.092;6.828;2023-02-15T05:55:05;1.80;99.90
20839;DHT22;10580;51.092;6.828;2023-02-15T05:57:31;1.80;99.90
20839;DHT22;10580;51.092;6.828;2023-02-15T05:59:56;1.80;99.90
20839;DHT22;10580;51.092;6.828;2023-02-15T06:02:22;1.80;99.90
20839;DHT22;10580;51.092;6.828;2023-02-15T06:04:51;1.80;99.90
20839;DHT22;10580;51.092;6.828;2023-02-15T06:07:16;1.80;99.90
20839;DHT22;10580;51.092;6.828;2023-02-15T06:09:42;1.80;99.90
20839;DHT22;10580;51.092;6.828;2023-02-15T06:12:07;1.80;99.90
20839;DHT22;10580;51.092;6.828;2023-02-15T06:14:33;1.80;99.90
20839;DHT22;10580;51.092;6.828;2023-02-15T06:16:58;1.80;99.90
20839;DHT22;10580;51.092;6.828;2023-02-15T06:19:24;1.80;99.90
20839;DHT22;10580;51.092;6.828;2023-02-15T06:21:49;1.70;99.90
20839;DHT22;10580;51.092;6.828;2023-02-15T06:24:15;1.70;99.90
20839;DHT22;10580;51.092;6.828;2023-02-15T06:26:43;1.80;99.90
20839;DHT22;10580;51.092;6.828;2023-02-15T06:29:09;1.80;99.90
20839;DHT22;10580;51.092;6.828;2023-02-15T06:31:34;1.70;99.90
20839;DHT22;10580;51.092;6.828;2023-02-15T06:34:00;1.70;99.90
20839;DHT22;10580;51.092;6.828;2023-02-15T06:36:30;1.70;99.90
20839;DHT22;10580;51.092;6.828;2023-02-15T06:38:56;1.70;99.90
20839;DHT22;10580;51.092;6.828;2023-02-15T06:41:22;1.80;99.90
20839;DHT22;10580;51.092;6.828;2023-02-15T06:43:49;1.70;99.90
20839;DHT22;10580;51.092;6.828;2023-02-15T06:46:15;1.70;99.90
20839;DHT22;10580;51.092;6.828;2023-02-15T06:48:40;1.70;99.90
20839;DHT22;10580;51.092;6.828;2023-02-15T06:51:06;1.70;99.90
20839;DHT22;10580;51.092;6.828;2023-02-15T06:53:31;1.70;99.90
20839;DHT22;10580;51.092;6.828;2023-02-15T06:56:04;1.60;99.90
20839;DHT22;10580;51.092;6.828;2023-02-15T06:58:42;1.70;99.90
20839;DHT22;10580;51.092;6.828;2023-02-15T07:01:09;1.60;99.90
20839;DHT22;10580;51.092;6.828;2023-02-15T07:03:35;1.70;99.90
20839;DHT22;10580;51.092;6.828;2023-02-15T07:06:02;1.60;99.90
20839;DHT22;10580;51.092;6.828;2023-02-15T07:08:31;1.70;99.90
20839;DHT22;10580;51.092;6.828;2023-02-15T07:10:56;1.70;99.90
20839;DHT22;10580;51.092;6.828;2023-02-15T07:13:42;1.70;99.90
20839;DHT22;10580;51.092;6.828;2023-02-15T07:16:10;1.60;99.90
20839;DHT22;10580;51.092;6.828;2023-02-15T07:18:36;1.70;99.90
20839;DHT22;10580;51.092;6.828;2023-02-15T07:21:02;1.70;99.90
20839;DHT22;10580;51.092;6.828;2023-02-15T07:23:28;1.70;99.90
20839;DHT22;10580;51.092;6.828;2023-02-15T07:26:00;1.80;99.90
20839;DHT22;10580;51.092;6.828;2023-02-15T07:28:27;1.80;99.90
20839;DHT22;10580;51.092;6.828;2023-02-15T07:30:52;1.80;99.90
20839;DHT22;10580;51.092;6.828;2023-02-15T07:36:33;1.90;99.90
20839;DHT22;10580;51.092;6.828;2023-02-15T07:38:58;1.90;99.90
20839;DHT22;10580;51.092;6.828;2023-02-15T07:41:24;2.00;99.90
20839;DHT22;10580;51.092;6.828;2023-02-15T07:43:49;2.30;99.90
20839;DHT22;10580;51.092;6.828;2023-02-15T07:46:16;2.60;99.90
20839;DHT22;10580;51.092;6.828;2023-02-15T07:48:42;3.30;99.90
20839;DHT22;10580;51.092;6.828;2023-02-15T07:51:10;3.50;99.90
20839;DHT22;10580;51.092;6.828;2023-02-15T07:53:36;3.50;99.90
20839;DHT22;10580;51.092;6.828;2023-02-15T07:59:24;3.20;99.90
20839;DHT22;10580;51.092;6.828;2023-02-15T08:01:50;3.20;99.90
20839;DHT22;10580;51.092;6.828;2023-02-15T08:04:16;3.20;99.90
20839;DHT22;10580;51.092;6.828;2023-02-15T08:06:43;3.20;99.90
20839;DHT22;10580;51.092;6.828;2023-02-15T08:09:13;3.10;99.90
20839;DHT22;10580;51.092;6.828;2023-02-15T08:11:39;3.10;99.90
20839;DHT22;10580;51.092;6.828;2023-02-15T08:14:07;3.10;99.90
20839;DHT22;10580;51.092;6.828;2023-02-15T08:16:47;3.20;99.90
20839;DHT22;10580;51.092;6.828;2023-02-15T08:21:40;3.40;99.90
20839;DHT22;10580;51.092;6.828;2023-02-15T08:24:07;3.40;99.90
20839;DHT22;10580;51.092;6.828;2023-02-15T08:26:33;3.40;99.90
20839;DHT22;10580;51.092;6.828;2023-02-15T08:29:00;3.50;99.90
20839;DHT22;10580;51.092;6.828;2023-02-15T08:31:26;3.60;99.90
20839;DHT22;10580;51.092;6.828;2023-02-15T08:33:54;4.00;99.90
20839;DHT22;10580;51.092;6.828;2023-02-15T08:36:24;4.10;99.20
20839;DHT22;10580;51.092;6.828;2023-02-15T08:38:52;4.30;99.90
20839;DHT22;10580;51.092;6.828;2023-02-15T08:41:20;4.30;66.60
20839;DHT22;10580;51.092;6.828;2023-02-15T08:43:48;4.20;54.50
20839;DHT22;10580;51.092;6.828;2023-02-15T08:46:15;4.30;45.50
20839;DHT22;10580;51.092;6.828;2023-02-15T08:48:42;5.10;36.70
20839;DHT22;10580;51.092;6.828;2023-02-15T08:51:16;6.30;1.00
20839;DHT22;10580;51.092;6.828;2023-02-15T08:53:45;7.20;1.00
20839;DHT22;10580;51.092;6.828;2023-02-15T08:56:11;7.80;99.90
20839;DHT22;10580;51.092;6.828;2023-02-15T08:58:37;7.30;99.90
20839;DHT22;10580;51.092;6.828;2023-02-15T09:01:14;7.10;99.90
20839;DHT22;10580;51.092;6.828;2023-02-15T09:03:45;7.50;1.00
20839;DHT22;10580;51.092;6.828;2023-02-15T09:06:11;7.80;1.00
20839;DHT22;10580;51.092;6.828;2023-02-15T09:08:37;8.50;99.90
20839;DHT22;10580;51.092;6.828;2023-02-15T09:13:42;9.60;99.90
20839;DHT22;10580;51.092;6.828;2023-02-15T09:16:09;9.90;1.00
20839;DHT22;10580;51.092;6.828;2023-02-15T09:18:37;9.60;1.00
20839;DHT22;10580;51.092;6.828;2023-02-15T09:21:04;9.80;1.00
20839;DHT22;10580;51.092;6.828;2023-02-15T09:23:30;9.00;1.00
20839;DHT22;10580;51.092;6.828;2023-02-15T09:25:56;9.30;99.90
20839;DHT22;10580;51.092;6.828;2023-02-15T09:28:22;10.00;99.90
20839;DHT22;10580;51.092;6.828;2023-02-15T09:30:47;9.70;1.00
20839;DHT22;10580;51.092;6.828;2023-02-15T09:33:13;9.80;99.90
20839;DHT22;10580;51.092;6.828;2023-02-15T09:35:39;9.80;99.90
20839;DHT22;10580;51.092;6.828;2023-02-15T09:38:04;10.20;71.50
20839;DHT22;10580;51.092;6.828;2023-02-15T09:40:35;10.20;1.00
20839;DHT22;10580;51.092;6.828;2023-02-15T09:43:13;10.40;1.00
20839;DHT22;10580;51.092;6.828;2023-02-15T09:45:49;10.10;1.00
20839;DHT22;10580;51.092;6.828;2023-02-15T09:48:22;9.70;1.00
20839;DHT22;10580;51.092;6.828;2023-02-15T09:56:31;9.90;99.90
20839;DHT22;10580;51.092;6.828;2023-02-15T09:59:27;9.90;1.00
20839;DHT22;10580;51.092;6.828;2023-02-15T10:05:24;10.20;1.00
20839;DHT22;10580;51.092;6.828;2023-02-15T10:08:13;10.30;1.00
20839;DHT22;10580;51.092;6.828;2023-02-15T10:19:48;9.80;68.70
20839;DHT22;10580;51.092;6.828;2023-02-15T10:22:24;9.90;1.00
20839;DHT22;10580;51.092;6.828;2023-02-15T10:27:26;9.90;1.00
20839;DHT22;10580;51.092;6.828;2023-02-15T10:30:10;10.00;1.00
20839;DHT22;10580;51.092;6.828;2023-02-15T10:46:48;11.10;99.90
20839;DHT22;10580;51.092;6.828;2023-02-15T10:55:12;12.50;99.90
20839;DHT22;10580;51.092;6.828;2023-02-15T10:58:01;12.20;99.90
20839;DHT22;10580;51.092;6.828;2023-02-15T11:00:58;11.50;99.90
20839;DHT22;10580;51.092;6.828;2023-02-15T11:06:20;10.80;99.90
20839;DHT22;10580;51.092;6.828;2023-02-15T11:08:54;10.50;99.90
20839;DHT22;10580;51.092;6.828;2023-02-15T11:11:30;10.20;99.90
20839;DHT22;10580;51.092;6.828;2023-02-15T11:14:01;9.90;1.00
20839;DHT22;10580;51.092;6.828;2023-02-15T11:16:33;9.50;1.00
20839;DHT22;10580;51.092;6.828;2023-02-15T11:19:13;9.30;99.90
20839;DHT22;10580;51.092;6.828;2023-02-15T11:21:52;9.40;99.90
20839;DHT22;10580;51.092;6.828;2023-02-15T11:24:20;9.20;99.90
20839;DHT22;10580;51.092;6.828;2023-02-15T11:32:33;9.20;99.90
20839;DHT22;10580;51.092;6.828;2023-02-15T11:38:01;9.40;99.90
20839;DHT22;10580;51.092;6.828;2023-02-15T11:40:59;9.40;14.50
20839;DHT22;10580;51.092;6.828;2023-02-15T11:43:43;9.40;1.00
20839;DHT22;10580;51.092;6.828;2023-02-15T11:46:11;9.50;1.00
20839;DHT22;10580;51.092;6.828;2023-02-15T11:48:37;9.50;1.00
20839;DHT22;10580;51.092;6.828;2023-02-15T11:51:04;9.60;99.90
20839;DHT22;10580;51.092;6.828;2023-02-15T11:53:36;9.70;99.90
20839;DHT22;10580;51.092;6.828;2023-02-15T11:56:03;9.70;1.00
20839;DHT22;10580;51.092;6.828;2023-02-15T11:58:30;9.70;1.00
20839;DHT22;10580;51.092;6.828;2023-02-15T12:06:41;9.90;1.00
20839;DHT22;10580;51.092;6.828;2023-02-15T12:09:37;10.10;1.00
20839;DHT22;10580;51.092;6.828;2023-02-15T12:12:29;10.60;99.90
20839;DHT22;10580;51.092;6.828;2023-02-15T12:15:16;10.90;1.00
20839;DHT22;10580;51.092;6.828;2023-02-15T12:20:49;11.80;1.00
20839;DHT22;10580;51.092;6.828;2023-02-15T12:23:34;11.80;99.90
20839;DHT22;10580;51.092;6.828;2023-02-15T12:26:03;11.70;99.90
20839;DHT22;10580;51.092;6.828;2023-02-15T12:28:59;11.80;99.90
20839;DHT22;10580;51.092;6.828;2023-02-15T12:31:36;11.70;99.90
20839;DHT22;10580;51.092;6.828;2023-02-15T12:34:08;11.80;99.90
20839;DHT22;10580;51.092;6.828;2023-02-15T12:36:46;11.70;99.90
20839;DHT22;10580;51.092;6.828;2023-02-15T12:39:19;11.40;99.90
20839;DHT22;10580;51.092;6.828;2023-02-15T12:44:22;11.20;99.90
20839;DHT22;10580;51.092;6.828;2023-02-15T12:49:22;11.40;1.00
20839;DHT22;10580;51.092;6.828;2023-02-15T12:51:56;11.40;1.00
20839;DHT22;10580;51.092;6.828;2023-02-15T12:54:37;11.50;1.00
20839;DHT22;10580;51.092;6.828;2023-02-15T12:57:28;11.50;99.90
20839;DHT22;10580;51.092;6.828;2023-02-15T13:00:00;11.60;99.90
20839;DHT22;10580;51.092;6.828;2023-02-15T13:03:14;11.80;99.90
20839;DHT22;10580;51.092;6.828;2023-02-15T13:05:31;12.10;99.90
20839;DHT22;10580;51.092;6.828;2023-02-15T13:11:00;12.40;99.90
20839;DHT22;10580;51.092;6.828;2023-02-15T13:13:32;12.70;99.90
20839;DHT22;10580;51.092;6.828;2023-02-15T13:16:09;12.80;99.90
20839;DHT22;10580;51.092;6.828;2023-02-15T13:18:46;12.90;99.90
20839;DHT22;10580;51.092;6.828;2023-02-15T13:21:21;13.20;99.90
20839;DHT22;10580;51.092;6.828;2023-02-15T13:23:53;13.70;99.90
20839;DHT22;10580;51.092;6.828;2023-02-15T13:26:23;14.10;99.90
20839;DHT22;10580;51.092;6.828;2023-02-15T13:28:57;14.60;74.20
20839;DHT22;10580;51.092;6.828;2023-02-15T13:31:27;14.80;17.10
20839;DHT22;10580;51.092;6.828;2023-02-15T13:34:02;15.00;1.00
20839;DHT22;10580;51.092;6.828;2023-02-15T13:36:57;15.00;1.00
20839;DHT22;10580;51.092;6.828;2023-02-15T13:42:40;15.70;1.00
20839;DHT22;10580;51.092;6.828;2023-02-15T13:54:04;16.50;1.00
20839;DHT22;10580;51.092;6.828;2023-02-15T13:59:36;16.70;1.00
20839;DHT22;10580;51.092;6.828;2023-02-15T14:02:21;16.40;1.00
20839;DHT22;10580;51.092;6.828;2023-02-15T14:10:44;16.80;1.00
20839;DHT22;10580;51.092;6.828;2023-02-15T14:16:03;16.60;1.00
20839;DHT22;10580;51.092;6.828;2023-02-15T14:18:48;16.60;1.00
20839;DHT22;10580;51.092;6.828;2023-02-15T14:21:46;16.40;1.00
20839;DHT22;10580;51.092;6.828;2023-02-15T14:30:19;15.20;1.00
20839;DHT22;10580;51.092;6.828;2023-02-15T14:32:49;15.30;1.00
20839;DHT22;10580;51.092;6.828;2023-02-15T14:35:26;15.20;1.00
20839;DHT22;10580;51.092;6.828;2023-02-15T14:38:22;15.00;1.00
20839;DHT22;10580;51.092;6.828;2023-02-15T14:41:10;14.80;1.00
20839;DHT22;10580;51.092;6.828;2023-02-15T14:47:07;14.40;1.00
20839;DHT22;10580;51.092;6.828;2023-02-15T14:49:39;14.10;1.00
20839;DHT22;10580;51.092;6.828;2023-02-15T14:52:09;13.90;1.00
20839;DHT22;10580;51.092;6.828;2023-02-15T15:02:22;13.50;1.00
20839;DHT22;10580;51.092;6.828;2023-02-15T15:10:45;13.20;1.00
20839;DHT22;10580;51.092;6.828;2023-02-15T15:15:56;13.00;1.00
20839;DHT22;10580;51.092;6.828;2023-02-15T15:21:08;12.80;1.00
20839;DHT22;10580;51.092;6.828;2023-02-15T15:23:44;12.70;1.00
20839;DHT22;10580;51.092;6.828;2023-02-15T15:26:42;12.60;1.00
20839;DHT22;10580;51.092;6.828;2023-02-15T15:29:12;12.50;23.20
20839;DHT22;10580;51.092;6.828;2023-02-15T15:31:44;12.40;56.30
20839;DHT22;10580;51.092;6.828;2023-02-15T15:37:46;12.20;99.90
20839;DHT22;10580;51.092;6.828;2023-02-15T15:48:37;11.90;99.90
20839;DHT22;10580;51.092;6.828;2023-02-15T15:51:11;11.80;99.90
20839;DHT22;10580;51.092;6.828;2023-02-15T15:53:42;11.80;99.90
20839;DHT22;10580;51.092;6.828;2023-02-15T15:56:19;11.80;99.90
20839;DHT22;10580;51.092;6.828;2023-02-15T15:58:59;11.70;99.90
20839;DHT22;10580;51.092;6.828;2023-02-15T16:01:43;11.60;99.90
20839;DHT22;10580;51.092;6.828;2023-02-15T16:04:28;11.50;99.90
20839;DHT22;10580;51.092;6.828;2023-02-15T16:07:01;11.50;1.00
20839;DHT22;10580;51.092;6.828;2023-02-15T16:09:40;11.40;1.00
20839;DHT22;10580;51.092;6.828;2023-02-15T16:12:22;11.30;1.00
20839;DHT22;10580;51.092;6.828;2023-02-15T16:14:51;11.30;1.00
20839;DHT22;10580;51.092;6.828;2023-02-15T16:17:27;11.20;1.00
20839;DHT22;10580;51.092;6.828;2023-02-15T17:17:41;9.80;99.90
20839;DHT22;10580;51.092;6.828;2023-02-15T17:20:22;9.80;1.00
20839;DHT22;10580;51.092;6.828;2023-02-15T17:26:01;9.80;1.00
20839;DHT22;10580;51.092;6.828;2023-02-15T17:28:31;9.80;99.90
20839;DHT22;10580;51.092;6.828;2023-02-15T17:30:57;9.80;99.90
20839;DHT22;10580;51.092;6.828;2023-02-15T17:33:36;9.80;99.90
20839;DHT22;10580;51.092;6.828;2023-02-15T17:36:07;9.80;1.00
20839;DHT22;10580;51.092;6.828;2023-02-15T17:38:38;9.70;1.00
20839;DHT22;10580;51.092;6.828;2023-02-15T17:41:04;9.60;15.00
20839;DHT22;10580;51.092;6.828;2023-02-15T17:43:34;9.60;99.90
20839;DHT22;10580;51.092;6.828;2023-02-15T17:46:08;9.50;99.90
20839;DHT22;10580;51.092;6.828;2023-02-15T17:48:39;9.40;99.90
20839;DHT22;10580;51.092;6.828;2023-02-15T17:51:16;9.40;1.00
20839;DHT22;10580;51.092;6.828;2023-02-15T17:53:43;9.40;1.00
20839;DHT22;10580;51.092;6.828;2023-02-15T17:56:27;9.30;1.00
20839;DHT22;10580;51.092;6.828;2023-02-15T17:58:53;9.30;1.00
20839;DHT22;10580;51.092;6.828;2023-02-15T18:01:19;9.30;1.00
20839;DHT22;10580;51.092;6.828;2023-02-15T18:04:04;9.20;1.00
20839;DHT22;10580;51.092;6.828;2023-02-15T18:06:53;9.10;1.00
20839;DHT22;10580;51.092;6.828;2023-02-15T18:09:38;9.10;1.00
20839;DHT22;10580;51.092;6.828;2023-02-15T18:12:34;9.10;1.00
20839;DHT22;10580;51.092;6.828;2023-02-15T18:15:02;9.00;1.00
20839;DHT22;10580;51.092;6.828;2023-02-15T18:17:43;9.00;1.00
20839;DHT22;10580;51.092;6.828;2023-02-15T18:20:21;8.90;1.00
20839;DHT22;10580;51.092;6.828;2023-02-15T18:22:49;8.90;1.00
20839;DHT22;10580;51.092;6.828;2023-02-15T18:25:17;8.80;1.00
20839;DHT22;10580;51.092;6.828;2023-02-15T18:27:45;8.70;1.00
20839;DHT22;10580;51.092;6.828;2023-02-15T18:30:15;8.70;1.00
20839;DHT22;10580;51.092;6.828;2023-02-15T18:32:42;8.60;1.00
20839;DHT22;10580;51.092;6.828;2023-02-15T18:35:16;8.60;1.00
20839;DHT22;10580;51.092;6.828;2023-02-15T18:37:43;8.50;1.00
20839;DHT22;10580;51.092;6.828;2023-02-15T18:40:20;8.50;1.00
20839;DHT22;10580;51.092;6.828;2023-02-15T18:42:46;8.50;1.00
20839;DHT22;10580;51.092;6.828;2023-02-15T18:45:17;8.40;1.00
20839;DHT22;10580;51.092;6.828;2023-02-15T18:47:44;8.40;1.00
20839;DHT22;10580;51.092;6.828;2023-02-15T18:50:12;8.30;1.00
20839;DHT22;10580;51.092;6.828;2023-02-15T18:52:38;8.30;1.00
20839;DHT22;10580;51.092;6.828;2023-02-15T18:55:22;8.30;1.00
20839;DHT22;10580;51.092;6.828;2023-02-15T18:57:50;8.20;1.00
20839;DHT22;10580;51.092;6.828;2023-02-15T19:00:17;8.20;1.00
20839;DHT22;10580;51.092;6.828;2023-02-15T19:02:44;8.20;1.00
20839;DHT22;10580;51.092;6.828;2023-02-15T19:05:09;8.20;1.00
20839;DHT22;10580;51.092;6.828;2023-02-15T19:07:35;8.20;1.00
20839;DHT22;10580;51.092;6.828;2023-02-15T19:10:04;8.10;1.00
20839;DHT22;10580;51.092;6.828;2023-02-15T19:12:36;8.10;1.00
20839;DHT22;10580;51.092;6.828;2023-02-15T19:18:47;8.00;1.00
20839;DHT22;10580;51.092;6.828;2023-02-15T19:24:42;8.00;1.00
20839;DHT22;10580;51.092;6.828;2023-02-15T19:27:29;8.00;1.00
20839;DHT22;10580;51.092;6.828;2023-02-15T19:30:04;8.00;1.00
20839;DHT22;10580;51.092;6.828;2023-02-15T19:32:32;8.00;1.00
20839;DHT22;10580;51.092;6.828;2023-02-15T19:34:58;8.00;1.00
20839;DHT22;10580;51.092;6.828;2023-02-15T19:37:29;7.90;1.00
20839;DHT22;10580;51.092;6.828;2023-02-15T19:39:59;7.90;1.00
20839;DHT22;10580;51.092;6.828;2023-02-15T19:42:26;7.80;1.00
20839;DHT22;10580;51.092;6.828;2023-02-15T19:44:51;7.80;1.00
20839;DHT22;10580;51.092;6.828;2023-02-15T19:47:19;7.80;1.00
20839;DHT22;10580;51.092;6.828;2023-02-15T19:49:47;7.70;1.00
20839;DHT22;10580;51.092;6.828;2023-02-15T19:52:18;7.70;1.00
20839;DHT22;10580;51.092;6.828;2023-02-15T19:54:45;7.70;1.00
20839;DHT22;10580;51.092;6.828;2023-02-15T19:57:12;7.60;1.00
20839;DHT22;10580;51.092;6.828;2023-02-15T19:59:39;7.60;1.00
20839;DHT22;10580;51.092;6.828;2023-02-15T20:02:05;7.50;1.00
20839;DHT22;10580;51.092;6.828;2023-02-15T20:04:34;7.50;1.00
20839;DHT22;10580;51.092;6.828;2023-02-15T20:07:00;7.50;1.00
20839;DHT22;10580;51.092;6.828;2023-02-15T20:09:34;7.40;1.00
20839;DHT22;10580;51.092;6.828;2023-02-15T20:12:02;7.40;1.00